Calabash, North Carolina
Current Conditions -  °F | °C
As of 5:53 PM on Wednesday 17 Dec 2014 (Local Time) from KCRE Reporting Station
Clear Clear  
Wind Chill: 50°   Ceiling: Unl
Heat Index: 50°   Visibility: 10mi
Dew Point: 45°   Wind: 7mph
Humidity: 83%   Direction: 220°SW
Pressure: 30.08"   Gusts: NA
Location:  33.89°N, 78.57°W
Report Text: KCRE 172253Z AUTO 22006KT 10SM CLR 10/07 A3008 RMK AO1 SLP188 T01000072
Loading
Personal Weather Stations






























Interactive Weather Map New forecast layout! Learn more

10-Day Weather Forecast

Advertisements
Track Severe Weather on mobile